Time;durP1;ratioP1;P1;durP2;ratioP2;P2;SDS_P1;SDS_P2;PMS_P1;PMS_P2;Temp;Humidity;BMP_temperature;BMP_pressure;BME280_temperature;BME280_humidity;BME280_pressure;Samples;Min_cycle;Max_cycle;Signal;HPM_P1;HPM_P2
2023/10/02 04:00:27;;;;;;;5.30;3.80;;;16.30;79.50;;;;;;6136534;22;21276;-71
2023/10/02 04:02:56;;;;;;;5.40;4.27;;;16.30;79.40;;;;;;5035052;28;20809;-74
2023/10/02 04:05:34;;;;;;;5.00;4.10;;;16.30;79.30;;;;;;5035334;28;20451;-74
2023/10/02 04:08:14;;;;;;;5.67;4.50;;;16.20;79.30;;;;;;5035529;28;20467;-74
2023/10/02 04:11:02;;;;;;;4.83;4.10;;;16.20;79.00;;;;;;5034922;28;20968;-73
2023/10/02 04:13:34;;;;;;;4.50;3.43;;;16.20;78.90;;;;;;5035235;28;20428;-74
2023/10/02 04:18:46;;;;;;;4.33;3.50;;;16.20;79.20;;;;;;5034909;28;20407;-74
2023/10/02 04:21:14;;;;;;;4.90;3.80;;;16.10;79.40;;;;;;5034650;28;20472;-74
2023/10/02 04:23:40;;;;;;;4.90;4.23;;;16.20;79.20;;;;;;5035211;28;20448;-74
2023/10/02 04:26:19;;;;;;;4.60;3.80;;;16.10;79.30;;;;;;5034884;28;20439;-74
2023/10/02 04:28:49;;;;;;;5.80;3.50;;;16.10;79.20;;;;;;5034820;28;20467;-74
2023/10/02 04:31:21;;;;;;;5.60;4.90;;;16.10;79.20;;;;;;5034779;28;20498;-74
2023/10/02 04:33:52;;;;;;;4.37;3.77;;;16.10;79.10;;;;;;5034830;28;20439;-74
2023/10/02 04:36:28;;;;;;;4.80;3.40;;;16.10;79.30;;;;;;5034544;28;20924;-74
2023/10/02 04:38:57;;;;;;;5.20;4.70;;;16.00;79.50;;;;;;5034718;28;20427;-74
2023/10/02 04:41:26;;;;;;;5.60;4.40;;;16.00;79.40;;;;;;5034556;28;20468;-74
2023/10/02 04:43:57;;;;;;;4.73;4.00;;;16.00;80.90;;;;;;5033520;28;20470;-74
2023/10/02 04:46:28;;;;;;;5.97;4.40;;;16.00;79.90;;;;;;5034266;28;20986;-74
2023/10/02 04:48:59;;;;;;;5.67;4.00;;;16.10;79.40;;;;;;5034139;28;20980;-74
2023/10/02 04:51:28;;;;;;;5.90;4.97;;;16.00;79.30;;;;;;5034398;28;20494;-74
2023/10/02 04:53:58;;;;;;;4.83;4.33;;;16.00;79.30;;;;;;5034367;28;20439;-74
2023/10/02 04:56:25;;;;;;;6.60;4.70;;;16.00;79.60;;;;;;5034427;28;20447;-74
2023/10/02 04:58:57;;;;;;;4.77;3.70;;;16.00;79.50;;;;;;5034313;28;20475;-74
2023/10/02 05:01:29;;;;;;;6.17;4.37;;;16.00;79.60;;;;;;5033859;28;20479;-74
2023/10/02 05:04:02;;;;;;;6.30;5.10;;;16.00;79.80;;;;;;5033929;28;20912;-74
2023/10/02 05:06:44;;;;;;;6.30;4.77;;;16.10;80.20;;;;;;5034206;28;20459;-74
2023/10/02 05:09:21;;;;;;;4.57;3.90;;;16.10;80.50;;;;;;5034372;28;20624;-74
2023/10/02 05:11:52;;;;;;;6.07;4.77;;;16.20;80.40;;;;;;5034341;28;20467;-73
2023/10/02 05:14:26;;;;;;;4.97;4.00;;;16.20;79.70;;;;;;5034907;28;20455;-74
2023/10/02 05:17:16;;;;;;;5.20;4.03;;;16.20;79.50;;;;;;5034006;28;20431;-74
2023/10/02 05:19:56;;;;;;;4.73;4.10;;;16.20;79.50;;;;;;5033723;28;20468;-74
2023/10/02 05:22:24;;;;;;;5.53;4.63;;;16.20;78.80;;;;;;5033907;28;20499;-74
2023/10/02 05:24:58;;;;;;;4.90;4.33;;;16.10;78.50;;;;;;5033773;28;20932;-74
2023/10/02 05:27:31;;;;;;;5.90;4.67;;;16.10;78.30;;;;;;5033515;28;20970;-73
2023/10/02 05:29:59;;;;;;;5.40;4.20;;;16.00;78.30;;;;;;5034224;28;20474;-74
2023/10/02 05:32:31;;;;;;;5.67;4.10;;;16.00;78.10;;;;;;5033641;28;20873;-74
2023/10/02 05:35:06;;;;;;;4.83;3.70;;;16.00;78.00;;;;;;5033623;28;20479;-74
2023/10/02 05:37:39;;;;;;;4.93;4.00;;;16.00;77.70;;;;;;5033662;28;20423;-74
2023/10/02 05:43:09;;;;;;;6.40;5.23;;;16.00;77.60;;;;;;5033378;28;20434;-74
2023/10/02 05:45:39;;;;;;;5.40;4.17;;;16.00;77.60;;;;;;5033544;28;20849;-74
2023/10/02 05:48:14;;;;;;;4.43;3.90;;;16.00;77.90;;;;;;5033374;28;20534;-74
2023/10/02 05:50:47;;;;;;;4.93;4.43;;;16.00;78.00;;;;;;5033086;28;20968;-73
2023/10/02 05:53:15;;;;;;;6.10;5.43;;;16.10;77.90;;;;;;5033478;28;20440;-74
2023/10/02 05:58:31;;;;;;;6.40;4.50;;;16.10;77.80;;;;;;5033369;28;20485;-74
2023/10/02 06:01:01;;;;;;;6.47;4.37;;;16.20;77.80;;;;;;5033466;28;20474;-74
2023/10/02 06:03:34;;;;;;;6.80;5.30;;;16.20;77.80;;;;;;5033223;28;20463;-73
2023/10/02 06:06:17;;;;;;;5.70;4.50;;;16.30;77.90;;;;;;5033267;28;20419;-74
2023/10/02 06:08:48;;;;;;;6.13;4.23;;;16.30;78.10;;;;;;5033239;28;20467;-73
2023/10/02 06:11:28;;;;;;;6.90;4.93;;;16.00;78.80;;;;;;5033648;28;20483;-73
2023/10/02 06:13:55;;;;;;;5.30;4.80;;;15.90;79.80;;;;;;5033592;28;20428;-74
2023/10/02 06:16:24;;;;;;;5.30;4.50;;;15.90;80.10;;;;;;5033371;28;20473;-73
2023/10/02 06:19:01;;;;;;;4.60;4.10;;;16.40;79.80;;;;;;5033080;28;20435;-74
2023/10/02 06:21:30;;;;;;;6.63;4.73;;;17.60;78.40;;;;;;5033023;28;20466;-73
2023/10/02 06:23:57;;;;;;;5.27;4.77;;;19.20;73.00;;;;;;5033052;28;20505;-74
2023/10/02 06:26:29;;;;;;;3.93;3.50;;;20.70;69.50;;;;;;5032797;28;20799;-74
2023/10/02 06:31:42;;;;;;;5.43;4.83;;;23.70;62.30;;;;;;5029408;28;20456;-74
2023/10/02 06:34:11;;;;;;;5.27;4.63;;;24.90;59.20;;;;;;5033064;28;20431;-74
2023/10/02 06:36:47;;;;;;;5.00;4.50;;;25.70;57.80;;;;;;5033198;28;20439;-75
2023/10/02 06:39:17;;;;;;;4.90;4.40;;;26.70;55.70;;;;;;5032936;28;20422;-74
2023/10/02 06:41:45;;;;;;;5.20;4.30;;;27.40;54.20;;;;;;5033158;28;20467;-74
2023/10/02 06:44:20;;;;;;;5.40;4.90;;;28.00;53.50;;;;;;5032804;28;20431;-75
2023/10/02 06:46:55;;;;;;;5.50;4.77;;;28.90;52.20;;;;;;5032937;28;20522;-75
2023/10/02 06:49:23;;;;;;;6.13;4.93;;;29.80;49.60;;;;;;5032526;28;20945;-75
2023/10/02 06:51:51;;;;;;;6.13;5.27;;;30.30;48.40;;;;;;5032738;28;20479;-75
2023/10/02 06:54:19;;;;;;;5.53;4.90;;;30.40;47.80;;;;;;5032763;28;20447;-74
2023/10/02 06:56:46;;;;;;;6.17;5.03;;;30.90;47.70;;;;;;5032837;28;20497;-75
2023/10/02 06:59:13;;;;;;;5.40;4.90;;;31.90;46.10;;;;;;5032429;28;20929;-75
2023/10/02 07:02:01;;;;;;;5.23;4.70;;;32.10;45.50;;;;;;5032451;28;20517;-75
2023/10/02 07:04:30;;;;;;;5.27;4.67;;;31.50;46.20;;;;;;5032599;28;20886;-75
2023/10/02 07:07:03;;;;;;;5.50;4.90;;;32.20;45.80;;;;;;5032950;28;20471;-75
2023/10/02 07:09:36;;;;;;;5.20;4.70;;;33.00;43.80;;;;;;5036293;28;20498;-76
2023/10/02 07:12:13;;;;;;;4.77;4.30;;;33.70;42.60;;;;;;5036213;28;20979;-75
2023/10/02 07:14:41;;;;;;;5.50;5.00;;;34.40;41.50;;;;;;5036313;28;20446;-76
2023/10/02 07:17:16;;;;;;;5.00;4.60;;;35.20;40.90;;;;;;5035984;28;20439;-75
2023/10/02 07:20:00;;;;;;;6.23;5.40;;;35.20;40.40;;;;;;5036592;28;20431;-75
2023/10/02 07:22:28;;;;;;;5.97;5.47;;;34.50;40.30;;;;;;5036108;28;20570;-75
2023/10/02 07:24:56;;;;;;;5.57;5.07;;;34.40;40.80;;;;;;5036102;28;20444;-75
2023/10/02 07:27:24;;;;;;;5.60;5.10;;;34.00;41.60;;;;;;5036043;28;20552;-75
2023/10/02 07:29:55;;;;;;;6.00;5.33;;;33.70;41.90;;;;;;5035956;28;20486;-75
2023/10/02 07:32:23;;;;;;;5.40;4.90;;;32.90;42.00;;;;;;5035931;28;20482;-75
2023/10/02 07:34:51;;;;;;;7.00;5.10;;;31.90;43.90;;;;;;5035655;28;20439;-75
2023/10/02 07:37:25;;;;;;;5.30;4.80;;;30.80;45.60;;;;;;5035844;28;20447;-75
2023/10/02 07:40:00;;;;;;;7.03;6.03;;;29.60;47.20;;;;;;5035891;28;20478;-75
2023/10/02 07:42:29;;;;;;;6.17;5.57;;;28.60;50.20;;;;;;5035751;28;20471;-74
2023/10/02 07:45:11;;;;;;;5.87;5.37;;;27.90;50.90;;;;;;5035713;28;20443;-75
2023/10/02 07:47:39;;;;;;;7.80;6.17;;;27.50;52.50;;;;;;5035755;28;20510;-74
2023/10/02 07:50:23;;;;;;;5.83;5.23;;;27.10;52.10;;;;;;5035573;28;20483;-74
2023/10/02 07:52:52;;;;;;;7.60;6.00;;;27.00;54.10;;;;;;5035670;28;20431;-74
2023/10/02 07:55:23;;;;;;;5.60;5.10;;;26.60;52.90;;;;;;5035537;28;21043;-75
2023/10/02 07:57:58;;;;;;;5.77;5.27;;;26.10;55.10;;;;;;5035553;28;20493;-74
2023/10/02 08:00:38;;;;;;;6.13;5.40;;;25.80;55.90;;;;;;5035542;28;20434;-73
2023/10/02 08:03:29;;;;;;;6.23;5.63;;;25.60;56.00;;;;;;5035422;28;20511;-72
2023/10/02 08:05:56;;;;;;;5.30;4.80;;;25.50;56.80;;;;;;5034908;28;20451;-72
2023/10/02 08:08:31;;;;;;;6.13;5.40;;;25.50;56.60;;;;;;5035279;28;20470;-72
2023/10/02 08:10:59;;;;;;;5.80;5.20;;;25.40;57.70;;;;;;5035232;28;20458;-72
2023/10/02 08:13:33;;;;;;;5.60;5.00;;;25.50;58.50;;;;;;5035187;28;20443;-72
2023/10/02 08:16:04;;;;;;;7.73;5.60;;;25.50;55.80;;;;;;5035231;28;20459;-72
2023/10/02 08:18:33;;;;;;;6.27;5.53;;;25.40;57.40;;;;;;5034765;28;20909;-72
2023/10/02 08:21:01;;;;;;;6.73;6.13;;;25.40;56.50;;;;;;5036003;28;20471;-72
2023/10/02 08:23:29;;;;;;;7.17;5.77;;;25.50;55.90;;;;;;5035023;28;20439;-72
2023/10/02 08:26:03;;;;;;;5.77;4.77;;;25.70;55.80;;;;;;5034986;28;20494;-72
2023/10/02 08:28:33;;;;;;;6.67;5.83;;;25.70;55.40;;;;;;5034965;28;20423;-72
2023/10/02 08:31:03;;;;;;;6.00;5.07;;;25.70;55.60;;;;;;5034703;28;20494;-71
2023/10/02 08:33:31;;;;;;;6.60;5.83;;;25.80;56.30;;;;;;5034798;28;20450;-72
2023/10/02 08:36:09;;;;;;;6.50;5.90;;;25.20;55.80;;;;;;5035221;28;20803;-72
2023/10/02 08:38:40;;;;;;;6.90;6.20;;;24.60;57.20;;;;;;5034426;28;20522;-72
2023/10/02 08:41:08;;;;;;;5.50;5.00;;;24.10;57.20;;;;;;5034833;28;20471;-71
2023/10/02 08:43:41;;;;;;;5.83;5.23;;;23.70;58.30;;;;;;5034604;28;20447;-71
2023/10/02 08:46:17;;;;;;;6.40;5.60;;;23.80;60.10;;;;;;5035150;28;20438;-71
2023/10/02 08:48:46;;;;;;;6.63;5.57;;;23.90;59.80;;;;;;5034447;28;20427;-71
2023/10/02 08:51:28;;;;;;;6.50;5.87;;;23.80;59.70;;;;;;5034340;28;20466;-71
2023/10/02 08:53:57;;;;;;;7.83;7.03;;;23.60;60.00;;;;;;5034430;28;20474;-73
2023/10/02 08:56:26;;;;;;;6.77;5.90;;;23.60;59.90;;;;;;5034399;28;20479;-73
2023/10/02 09:01:33;;;;;;;6.20;5.30;;;23.20;62.00;;;;;;5033826;28;20466;-73
2023/10/02 09:07:14;;;;;;;6.17;5.57;;;23.30;61.30;;;;;;5091389;27;20925;-72
2023/10/02 09:09:54;;;;;;;6.30;5.50;;;23.00;63.20;;;;;;5090659;28;20433;-73
2023/10/02 09:12:21;;;;;;;6.87;5.93;;;22.90;61.20;;;;;;5090724;28;20551;-72
2023/10/02 09:14:51;;;;;;;6.20;5.60;;;22.90;62.70;;;;;;5090706;28;20448;-73
2023/10/02 09:17:19;;;;;;;5.53;4.43;;;22.90;62.40;;;;;;5090639;28;20444;-72
2023/10/02 09:19:58;;;;;;;6.17;5.43;;;23.10;62.50;;;;;;5090895;28;20445;-73
2023/10/02 09:22:28;;;;;;;5.20;4.70;;;23.20;63.10;;;;;;5090580;28;20510;-75
2023/10/02 09:25:09;;;;;;;6.40;5.73;;;23.30;63.60;;;;;;5090539;28;20479;-73
2023/10/02 09:27:41;;;;;;;8.03;4.90;;;23.20;63.90;;;;;;5090399;28;20451;-75
2023/10/02 09:30:18;;;;;;;6.20;5.60;;;23.10;64.20;;;;;;5090550;28;20420;-75
2023/10/02 09:32:49;;;;;;;11.03;5.37;;;23.20;64.00;;;;;;5090298;28;20590;-75
2023/10/02 09:35:29;;;;;;;6.10;5.50;;;23.40;63.70;;;;;;5090403;28;20459;-75
2023/10/02 09:38:02;;;;;;;5.77;4.90;;;23.40;63.00;;;;;;5090330;28;20429;-75
2023/10/02 09:40:53;;;;;;;6.40;5.67;;;23.60;62.50;;;;;;5090205;28;20433;-76
2023/10/02 09:43:19;;;;;;;6.23;5.20;;;23.50;61.80;;;;;;5089993;28;20941;-76
2023/10/02 09:45:48;;;;;;;6.17;5.57;;;23.70;60.50;;;;;;5090391;28;20484;-75
2023/10/02 09:51:19;;;;;;;6.00;5.37;;;23.60;60.10;;;;;;5090067;28;20448;-75
2023/10/02 09:54:04;;;;;;;6.00;5.40;;;23.60;56.80;;;;;;5089747;28;20424;-75
2023/10/02 09:56:53;;;;;;;6.33;5.60;;;23.70;57.40;;;;;;5089895;28;20429;-75
2023/10/02 09:59:22;;;;;;;6.80;5.33;;;23.70;57.70;;;;;;5088807;28;20957;-75
2023/10/02 10:02:49;;;;;;;7.17;5.47;;;23.80;57.50;;;;;;5089859;28;20469;-75
2023/10/02 10:08:28;;;;;;;7.27;6.20;;;24.10;55.90;;;;;;5090028;28;20413;-75
2023/10/02 10:11:10;;;;;;;7.13;6.00;;;24.20;55.20;;;;;;5089892;28;20457;-76
2023/10/02 10:13:46;;;;;;;7.50;5.73;;;24.30;53.30;;;;;;5089935;28;20449;-76
2023/10/02 10:16:34;;;;;;;6.17;5.57;;;24.50;53.30;;;;;;5088883;28;20457;-76
2023/10/02 10:21:58;;;;;;;7.70;6.90;;;24.70;48.00;;;;;;5076245;28;20502;-75
2023/10/02 10:24:58;;;;;;;6.30;5.70;;;24.70;49.90;;;;;;5077046;28;20513;-75
2023/10/02 10:28:05;;;;;;;6.70;6.00;;;24.80;50.50;;;;;;5076747;28;20429;-75
2023/10/02 10:30:46;;;;;;;6.73;6.00;;;24.80;48.40;;;;;;5076312;28;20434;-75
2023/10/02 10:33:36;;;;;;;7.07;6.10;;;24.80;51.00;;;;;;5075997;28;20421;-75
2023/10/02 10:36:13;;;;;;;8.40;7.07;;;24.90;51.40;;;;;;5076078;28;20417;-75
2023/10/02 10:38:41;;;;;;;9.07;8.03;;;25.00;53.90;;;;;;5076043;28;20429;-76
2023/10/02 10:41:09;;;;;;;9.37;8.43;;;25.00;53.40;;;;;;5075779;28;20515;-76
2023/10/02 10:43:56;;;;;;;9.63;8.30;;;25.10;50.50;;;;;;5075921;28;20437;-76
2023/10/02 10:46:24;;;;;;;8.97;8.07;;;25.10;49.90;;;;;;5075890;28;20566;-76
2023/10/02 10:49:07;;;;;;;9.07;7.97;;;25.20;49.30;;;;;;5075594;28;20961;-77
2023/10/02 10:51:34;;;;;;;9.27;8.37;;;25.30;50.10;;;;;;5075704;28;20473;-76
2023/10/02 10:54:12;;;;;;;9.00;8.10;;;25.40;49.80;;;;;;5075613;28;20446;-76
2023/10/02 10:56:43;;;;;;;9.80;8.80;;;25.50;49.70;;;;;;5075539;28;20465;-76
2023/10/02 10:59:12;;;;;;;9.37;8.47;;;25.70;51.80;;;;;;5075106;28;20930;-76
2023/10/02 11:01:48;;;;;;;10.10;9.10;;;25.80;51.10;;;;;;5075238;28;20560;-75
2023/10/02 11:04:26;;;;;;;10.07;9.07;;;25.90;50.00;;;;;;5075192;28;20434;-77
2023/10/02 11:06:53;;;;;;;8.67;7.77;;;26.00;50.80;;;;;;5075561;28;20481;-75
2023/10/02 11:09:19;;;;;;;9.80;8.60;;;26.10;50.40;;;;;;5075329;28;20879;-76
2023/10/02 11:11:50;;;;;;;11.70;10.50;;;26.30;49.50;;;;;;5074917;28;20839;-76
2023/10/02 11:14:21;;;;;;;9.87;8.37;;;26.60;48.80;;;;;;5075031;28;20430;-76
2023/10/02 11:16:52;;;;;;;10.40;8.43;;;26.50;49.00;;;;;;5075153;28;20449;-77
2023/10/02 11:19:35;;;;;;;9.40;8.50;;;26.60;49.70;;;;;;5074870;28;20445;-77
2023/10/02 11:22:15;;;;;;;9.53;8.57;;;26.50;50.10;;;;;;5075431;28;20458;-76
2023/10/02 11:24:43;;;;;;;9.83;8.83;;;26.50;49.70;;;;;;5074883;28;20430;-77
2023/10/02 11:27:14;;;;;;;9.30;8.40;;;26.50;49.10;;;;;;5074705;28;20507;-77
2023/10/02 11:29:45;;;;;;;10.10;9.10;;;26.60;50.10;;;;;;5074309;28;20491;-77
2023/10/02 11:32:20;;;;;;;9.90;8.90;;;26.70;50.70;;;;;;5074746;28;20465;-77
2023/10/02 11:34:47;;;;;;;9.80;8.80;;;26.70;50.40;;;;;;5074580;28;20893;-77
2023/10/02 11:37:15;;;;;;;9.30;8.17;;;26.90;49.30;;;;;;5074612;28;20437;-77
2023/10/02 11:39:42;;;;;;;9.67;8.70;;;26.90;48.60;;;;;;5074478;28;20825;-77
2023/10/02 11:42:09;;;;;;;9.03;8.20;;;27.20;48.00;;;;;;5073983;28;21041;-77
2023/10/02 11:44:39;;;;;;;8.73;7.83;;;27.40;46.90;;;;;;5073983;28;20953;-77
2023/10/02 11:47:10;;;;;;;9.03;8.13;;;27.60;47.70;;;;;;5074297;28;20471;-77
2023/10/02 11:49:37;;;;;;;9.80;8.80;;;27.90;48.70;;;;;;5074434;28;20430;-77
2023/10/02 11:52:05;;;;;;;10.43;9.43;;;28.30;47.20;;;;;;5073834;28;21001;-77
2023/10/02 11:54:35;;;;;;;11.90;9.90;;;28.30;45.70;;;;;;5075087;28;20449;-77
2023/10/02 11:57:09;;;;;;;9.90;9.00;;;28.30;46.70;;;;;;5074257;28;20426;-77
2023/10/02 11:59:37;;;;;;;10.70;9.63;;;28.20;45.40;;;;;;5074197;28;20433;-77
2023/10/02 12:02:04;;;;;;;9.90;9.00;;;28.30;44.70;;;;;;5073795;28;20472;-77
2023/10/02 12:04:33;;;;;;;9.00;8.20;;;28.20;44.20;;;;;;5073970;28;20477;-77
2023/10/02 12:07:00;;;;;;;9.53;8.47;;;28.20;44.60;;;;;;5073879;28;20530;-77
2023/10/02 12:09:28;;;;;;;9.20;8.30;;;28.30;45.10;;;;;;5073984;28;20449;-77
2023/10/02 12:11:57;;;;;;;9.33;8.30;;;28.70;45.00;;;;;;5073631;28;20849;-77
2023/10/02 12:14:25;;;;;;;10.13;9.13;;;29.10;44.00;;;;;;5074042;28;20461;-77
2023/10/02 12:16:52;;;;;;;10.03;9.03;;;29.00;45.30;;;;;;5074666;28;20809;-77
2023/10/02 12:19:19;;;;;;;8.73;7.83;;;29.10;45.30;;;;;;5073775;28;20445;-77
2023/10/02 12:21:49;;;;;;;9.77;8.77;;;29.10;47.00;;;;;;5073891;28;20465;-77
2023/10/02 12:24:15;;;;;;;10.37;9.37;;;29.20;43.60;;;;;;5073765;28;20851;-77
2023/10/02 12:26:43;;;;;;;9.90;8.87;;;29.50;44.30;;;;;;5073936;28;20536;-77
2023/10/02 12:29:10;;;;;;;9.70;8.70;;;29.70;43.10;;;;;;5074970;28;20492;-77
2023/10/02 12:31:37;;;;;;;10.87;9.63;;;29.90;43.60;;;;;;5073846;28;20466;-76
2023/10/02 12:34:05;;;;;;;11.43;10.33;;;30.10;44.50;;;;;;5073922;28;20515;-77
2023/10/02 12:36:32;;;;;;;10.20;9.20;;;30.30;41.10;;;;;;5078324;28;20445;-77
2023/10/02 12:39:00;;;;;;;10.87;9.80;;;30.20;41.50;;;;;;5074104;28;20440;-75
2023/10/02 12:41:29;;;;;;;10.73;9.73;;;30.40;41.50;;;;;;5073226;28;20466;-74
2023/10/02 12:43:56;;;;;;;9.60;8.70;;;30.50;40.20;;;;;;5073400;28;20453;-74
2023/10/02 12:46:24;;;;;;;9.57;8.57;;;30.50;43.00;;;;;;5073725;28;20477;-74
2023/10/02 12:48:51;;;;;;;11.00;9.90;;;30.30;44.50;;;;;;5073256;28;20441;-74
2023/10/02 12:51:18;;;;;;;9.47;8.33;;;30.10;44.20;;;;;;5072879;28;20478;-74
2023/10/02 12:53:46;;;;;;;10.07;9.07;;;30.00;44.80;;;;;;5073226;28;20441;-74
2023/10/02 12:56:18;;;;;;;9.30;8.33;;;30.20;45.90;;;;;;5072881;28;20958;-74
2023/10/02 12:58:48;;;;;;;10.83;9.73;;;30.30;44.10;;;;;;5072936;28;20802;-74
2023/10/02 13:01:15;;;;;;;10.97;9.83;;;30.30;43.40;;;;;;5072806;28;20473;-75
2023/10/02 13:03:43;;;;;;;10.60;9.43;;;30.30;41.10;;;;;;5073491;28;20445;-75
2023/10/02 13:06:12;;;;;;;11.87;9.80;;;30.40;41.60;;;;;;5073513;28;20524;-76
2023/10/02 13:08:40;;;;;;;10.20;9.10;;;30.60;38.50;;;;;;5073261;28;20449;-72
2023/10/02 13:11:10;;;;;;;10.07;9.07;;;30.90;39.40;;;;;;5073036;28;20465;-73
2023/10/02 13:13:38;;;;;;;10.87;9.77;;;31.00;40.00;;;;;;5073339;28;20529;-73
2023/10/02 13:16:05;;;;;;;10.77;9.77;;;31.00;39.20;;;;;;5072776;28;20434;-73
2023/10/02 13:18:32;;;;;;;9.20;8.30;;;31.20;39.20;;;;;;5073054;28;20465;-73
2023/10/02 13:20:59;;;;;;;11.10;8.30;;;31.40;39.40;;;;;;5073126;28;20461;-72
2023/10/02 13:23:26;;;;;;;8.07;7.27;;;31.40;42.60;;;;;;5073136;28;20499;-74
2023/10/02 13:25:54;;;;;;;9.30;8.40;;;31.50;43.20;;;;;;5072893;28;20437;-72
2023/10/02 13:28:21;;;;;;;9.70;8.70;;;31.60;42.20;;;;;;5073081;28;20532;-73
2023/10/02 13:30:49;;;;;;;9.80;8.90;;;31.90;40.90;;;;;;5072867;28;20465;-74
2023/10/02 13:33:16;;;;;;;9.77;8.60;;;32.00;38.10;;;;;;5073068;28;20441;-72
2023/10/02 13:35:44;;;;;;;10.57;9.57;;;32.10;37.40;;;;;;5072996;28;20473;-73
2023/10/02 13:38:11;;;;;;;9.20;8.30;;;32.50;36.70;;;;;;5072870;28;20448;-74
2023/10/02 13:40:38;;;;;;;10.17;9.20;;;33.00;36.20;;;;;;5072413;28;20931;-73
2023/10/02 13:43:07;;;;;;;9.37;8.47;;;33.60;37.90;;;;;;5072785;28;20441;-73
2023/10/02 13:45:35;;;;;;;9.87;8.87;;;34.30;36.40;;;;;;5072883;28;20880;-73
2023/10/02 13:48:04;;;;;;;9.37;8.47;;;34.90;34.30;;;;;;5072633;28;20555;-74
2023/10/02 13:50:35;;;;;;;9.10;8.20;;;35.60;33.30;;;;;;5072645;28;20440;-73
2023/10/02 13:53:04;;;;;;;9.20;8.40;;;37.20;32.70;;;;;;5075302;28;20453;-73
2023/10/02 13:55:35;;;;;;;9.30;8.50;;;38.20;30.30;;;;;;5076577;28;20867;-73
2023/10/02 13:58:03;;;;;;;7.33;6.63;;;40.00;28.90;;;;;;5076685;28;20421;-74
2023/10/02 14:00:35;;;;;;;8.68;7.80;;;41.00;28.20;;;;;;5076352;28;20448;-74
2023/10/02 14:03:04;;;;;;;8.43;7.63;;;41.60;28.70;;;;;;5076541;28;20191;-74
2023/10/02 14:05:35;;;;;;;8.80;7.93;;;43.10;28.30;;;;;;5076054;28;20206;-74
2023/10/02 14:08:02;;;;;;;8.02;7.32;;;45.00;28.10;;;;;;5075843;28;20764;-74
2023/10/02 14:10:30;;;;;;;8.25;7.47;;;46.80;25.70;;;;;;5076218;28;20203;-74
2023/10/02 14:12:56;;;;;;;7.97;7.28;;;47.70;24.70;;;;;;5076122;28;20230;-75
2023/10/02 14:15:25;;;;;;;8.38;7.05;;;47.40;24.50;;;;;;5076313;28;20202;-75
2023/10/02 14:17:52;;;;;;;8.15;7.40;;;46.90;24.90;;;;;;5077943;28;20612;-73
2023/10/02 14:20:20;;;;;;;8.93;8.00;;;46.80;25.10;;;;;;5075903;28;20676;-74
2023/10/02 14:22:47;;;;;;;9.18;8.38;;;47.30;25.00;;;;;;5075613;28;20667;-74
2023/10/02 14:25:16;;;;;;;7.68;6.78;;;47.30;24.70;;;;;;5075601;28;20289;-74
2023/10/02 14:27:43;;;;;;;7.60;6.90;;;46.70;24.50;;;;;;5075797;28;20214;-74
2023/10/02 14:30:13;;;;;;;8.00;7.30;;;47.10;25.40;;;;;;5075512;28;20203;-75
2023/10/02 14:32:44;;;;;;;8.02;7.32;;;48.00;24.10;;;;;;5076010;28;20250;-73
2023/10/02 14:35:11;;;;;;;8.35;7.68;;;47.60;23.60;;;;;;5075875;28;20209;-73
2023/10/02 14:37:39;;;;;;;7.60;6.90;;;46.00;24.70;;;;;;5075703;28;20198;-73
2023/10/02 14:40:09;;;;;;;7.45;6.85;;;45.10;25.60;;;;;;5075651;28;20211;-74
2023/10/02 14:42:36;;;;;;;8.30;7.47;;;45.80;26.10;;;;;;5075608;28;20223;-73
2023/10/02 14:45:04;;;;;;;7.95;7.35;;;46.50;25.30;;;;;;5075627;28;20206;-74
2023/10/02 14:47:31;;;;;;;7.55;6.93;;;47.10;24.90;;;;;;5075589;28;20222;-74
2023/10/02 14:49:58;;;;;;;7.15;6.47;;;46.70;24.50;;;;;;5075437;28;20290;-73
2023/10/02 14:52:26;;;;;;;7.72;7.03;;;47.20;24.90;;;;;;5075324;28;20222;-73
2023/10/02 14:54:54;;;;;;;8.27;7.60;;;46.90;25.30;;;;;;5075373;28;20218;-74
2023/10/02 14:57:22;;;;;;;7.82;7.07;;;46.70;25.20;;;;;;5075401;28;20236;-74
2023/10/02 14:59:49;;;;;;;7.50;6.88;;;46.40;24.90;;;;;;5075389;28;20202;-75
2023/10/02 15:02:16;;;;;;;6.90;6.30;;;46.50;24.80;;;;;;5075283;28;20233;-74
2023/10/02 15:04:43;;;;;;;8.25;7.55;;;46.60;25.50;;;;;;5074610;28;20667;-75
2023/10/02 15:07:11;;;;;;;8.15;7.45;;;46.30;26.20;;;;;;5075191;28;20639;-75
2023/10/02 15:09:38;;;;;;;9.05;8.15;;;45.80;26.30;;;;;;5075078;28;20252;-76
2023/10/02 15:12:07;;;;;;;8.00;7.30;;;44.50;27.60;;;;;;5074969;28;20223;-75
2023/10/02 15:14:35;;;;;;;8.63;7.93;;;42.90;28.10;;;;;;5075124;28;20327;-75
2023/10/02 15:17:04;;;;;;;9.53;8.53;;;40.90;29.20;;;;;;5074752;28;20668;-75
2023/10/02 15:19:31;;;;;;;8.53;7.77;;;39.10;31.30;;;;;;5128877;22;20493;-73
2023/10/02 15:21:57;;;;;;;8.83;8.00;;;38.00;32.80;;;;;;5054693;28;20740;-72
2023/10/02 15:24:24;;;;;;;9.93;8.93;;;37.00;34.60;;;;;;5054851;28;20444;-72
2023/10/02 15:26:51;;;;;;;13.93;10.50;;;35.90;36.30;;;;;;5054689;28;20565;-72
2023/10/02 15:29:19;;;;;;;9.57;8.57;;;35.00;37.30;;;;;;5054558;28;20897;-72
2023/10/02 15:31:46;;;;;;;12.50;9.73;;;34.20;38.60;;;;;;5054216;28;20821;-70
2023/10/02 15:34:13;;;;;;;10.60;9.60;;;33.50;40.00;;;;;;5054472;28;20486;-71
2023/10/02 15:36:39;;;;;;;10.10;9.20;;;32.90;39.80;;;;;;5054427;28;20443;-70
2023/10/02 15:39:06;;;;;;;10.77;9.57;;;32.40;40.90;;;;;;5055161;28;20449;-71
2023/10/02 15:41:34;;;;;;;12.87;10.43;;;32.00;41.50;;;;;;5054258;28;20512;-71
2023/10/02 15:44:00;;;;;;;10.23;9.20;;;31.60;41.70;;;;;;5054319;28;20438;-71
2023/10/02 15:46:28;;;;;;;14.10;12.70;;;31.30;42.70;;;;;;5054236;28;20446;-72
2023/10/02 15:48:55;;;;;;;10.73;9.60;;;31.10;43.70;;;;;;5054155;28;20489;-71
2023/10/02 15:51:23;;;;;;;9.67;8.73;;;30.80;43.20;;;;;;5054089;28;20459;-71
2023/10/02 15:53:50;;;;;;;10.37;9.37;;;30.50;43.40;;;;;;5053787;28;20544;-71
2023/10/02 15:56:17;;;;;;;9.50;8.50;;;30.20;44.20;;;;;;5054057;28;20442;-71
2023/10/02 15:58:45;;;;;;;10.70;9.60;;;30.10;44.20;;;;;;5053709;28;20888;-71
2023/10/02 16:01:16;;;;;;;11.17;9.60;;;29.90;45.20;;;;;;5053883;28;20474;-71
2023/10/02 16:03:47;;;;;;;10.37;9.30;;;29.70;45.10;;;;;;5053996;28;20492;-71
2023/10/02 16:06:18;;;;;;;9.87;8.77;;;29.70;45.70;;;;;;5053970;28;20514;-71
2023/10/02 16:08:47;;;;;;;10.67;9.20;;;29.50;46.60;;;;;;5053519;28;20458;-71
2023/10/02 16:11:17;;;;;;;10.60;8.43;;;29.40;47.10;;;;;;5053408;28;20845;-71
2023/10/02 16:13:43;;;;;;;10.30;9.20;;;29.30;47.50;;;;;;5053951;28;20442;-71
2023/10/02 16:16:11;;;;;;;12.67;9.57;;;29.20;47.90;;;;;;5053345;28;20449;-71
2023/10/02 16:18:37;;;;;;;10.57;9.47;;;29.00;48.60;;;;;;5053678;28;20442;-70
2023/10/02 16:21:10;;;;;;;11.30;9.50;;;28.90;49.20;;;;;;5053200;28;20489;-71
2023/10/02 16:23:39;;;;;;;9.37;8.40;;;28.80;49.90;;;;;;5053644;28;20437;-71
2023/10/02 16:26:12;;;;;;;10.00;8.33;;;28.60;50.30;;;;;;5053541;28;20442;-72
2023/10/02 16:28:38;;;;;;;10.00;9.00;;;28.40;50.70;;;;;;5053462;28;20466;-72
2023/10/02 16:31:06;;;;;;;12.50;9.10;;;28.30;51.10;;;;;;5053416;28;20470;-72
2023/10/02 16:33:33;;;;;;;11.63;9.67;;;28.00;51.50;;;;;;5053514;28;20442;-72
2023/10/02 16:35:59;;;;;;;9.53;8.63;;;27.80;52.20;;;;;;5053416;28;20455;-71
2023/10/02 16:38:27;;;;;;;9.90;8.90;;;27.70;52.60;;;;;;5053462;28;20449;-72
2023/10/02 16:40:54;;;;;;;10.40;9.40;;;27.60;53.10;;;;;;5053339;28;20473;-72
2023/10/02 16:43:21;;;;;;;10.00;9.10;;;27.40;53.80;;;;;;5053149;28;20431;-71
2023/10/02 16:45:49;;;;;;;9.40;8.47;;;27.30;54.10;;;;;;5053059;28;20941;-71
2023/10/02 16:48:15;;;;;;;10.20;9.17;;;27.20;54.60;;;;;;5053255;28;20565;-74
2023/10/02 16:50:42;;;;;;;10.00;9.10;;;27.10;55.10;;;;;;5052823;28;20975;-71
2023/10/02 16:53:08;;;;;;;13.60;11.47;;;27.00;55.60;;;;;;5052857;28;20935;-71
2023/10/02 16:55:36;;;;;;;12.87;11.67;;;26.80;55.90;;;;;;5052827;28;20989;-72
2023/10/02 16:58:04;;;;;;;11.67;10.47;;;26.70;56.40;;;;;;5053165;28;20817;-72
2023/10/02 17:00:32;;;;;;;12.73;11.40;;;26.60;56.50;;;;;;5053354;28;20472;-72
2023/10/02 17:02:58;;;;;;;10.87;9.87;;;26.40;57.00;;;;;;5053019;28;20485;-72
2023/10/02 17:05:25;;;;;;;10.77;9.70;;;26.30;57.40;;;;;;5053075;28;20449;-71
2023/10/02 17:07:53;;;;;;;12.03;10.07;;;26.20;57.90;;;;;;5053054;28;20478;-71
2023/10/02 17:10:21;;;;;;;11.30;9.57;;;26.00;58.20;;;;;;5053292;28;20561;-71
2023/10/02 17:12:51;;;;;;;10.63;9.60;;;25.80;58.60;;;;;;5053477;28;20449;-72
2023/10/02 17:15:19;;;;;;;9.50;8.43;;;25.70;58.90;;;;;;5053292;28;20445;-74
2023/10/02 17:17:47;;;;;;;13.13;10.67;;;25.60;59.00;;;;;;5053138;28;20939;-74
2023/10/02 17:20:16;;;;;;;14.10;10.50;;;25.50;59.20;;;;;;5052805;28;20474;-71
2023/10/02 17:22:44;;;;;;;9.53;8.60;;;25.40;59.30;;;;;;5052981;28;20434;-72
2023/10/02 17:25:13;;;;;;;9.83;8.73;;;25.30;59.30;;;;;;5053081;28;20492;-73
2023/10/02 17:27:41;;;;;;;10.33;9.33;;;25.20;59.80;;;;;;5055176;28;20539;-73